createdAt,value
2019-04-04T00:01:48.103Z,7.67
2019-04-04T00:04:16.124Z,7.53
2019-04-04T00:06:44.171Z,6.47
2019-04-04T00:09:12.217Z,10.87
2019-04-04T00:11:40.286Z,7.17
2019-04-04T00:14:08.349Z,8.63
2019-04-04T00:16:36.391Z,6.63
2019-04-04T00:19:04.450Z,9.10
2019-04-04T00:21:33.978Z,8.10
2019-04-04T00:24:02.299Z,8.87
2019-04-04T00:26:30.363Z,9.53
2019-04-04T00:29:01.265Z,6.97
2019-04-04T00:31:28.218Z,8.40
2019-04-04T00:33:56.575Z,8.97
2019-04-04T00:36:24.679Z,8.60
2019-04-04T00:38:52.727Z,7.40
2019-04-04T00:41:20.785Z,7.93
2019-04-04T00:43:49.902Z,8.40
2019-04-04T00:46:18.594Z,6.67
2019-04-04T00:48:46.642Z,9.00
2019-04-04T00:51:15.630Z,8.00
2019-04-04T00:53:43.730Z,7.97
2019-04-04T00:56:11.791Z,7.77
2019-04-04T00:58:39.850Z,9.87
2019-04-04T01:01:07.962Z,10.47
2019-04-04T01:03:36.016Z,8.20
2019-04-04T01:06:04.116Z,8.20
2019-04-04T01:08:32.163Z,10.10
2019-04-04T01:11:00.214Z,11.77
2019-04-04T01:13:28.258Z,10.00
2019-04-04T01:15:56.326Z,11.57
2019-04-04T01:18:25.337Z,11.57
2019-04-04T01:20:54.412Z,10.73
2019-04-04T01:23:22.483Z,9.70
2019-04-04T01:25:50.605Z,11.63
2019-04-04T01:28:18.673Z,11.37
2019-04-04T01:30:46.748Z,11.30
2019-04-04T01:33:14.795Z,11.43
2019-04-04T01:35:42.850Z,11.80
2019-04-04T01:38:10.886Z,10.47
2019-04-04T01:40:58.300Z,10.33
2019-04-04T01:43:26.535Z,11.40
2019-04-04T01:45:54.571Z,11.87
2019-04-04T01:48:22.637Z,13.47
2019-04-04T01:50:53.444Z,14.93
2019-04-04T01:53:20.530Z,14.47
2019-04-04T01:55:48.594Z,13.13
2019-04-04T01:58:16.648Z,14.50
2019-04-04T02:00:46.010Z,12.90
2019-04-04T02:03:14.599Z,13.13
2019-04-04T02:05:42.647Z,12.83
2019-04-04T02:08:10.710Z,15.77
2019-04-04T02:10:38.782Z,16.17
2019-04-04T02:13:09.629Z,20.07
2019-04-04T02:15:36.611Z,14.00
2019-04-04T02:18:04.681Z,14.97
2019-04-04T02:20:32.809Z,17.17
2019-04-04T02:23:01.558Z,16.20
2019-04-04T02:25:32.030Z,18.60
2019-04-04T02:28:00.699Z,19.93
2019-04-04T02:30:29.119Z,18.27
2019-04-04T02:33:00.480Z,18.97
2019-04-04T02:35:26.959Z,19.87
2019-04-04T02:37:56.066Z,19.23
2019-04-04T02:40:24.386Z,22.33
2019-04-04T02:42:55.330Z,24.53
2019-04-04T02:45:22.201Z,22.60
2019-04-04T02:48:09.591Z,23.77
2019-04-04T02:50:37.739Z,22.53
2019-04-04T02:53:05.928Z,20.53
2019-04-04T02:55:33.958Z,25.20
2019-04-04T02:58:02.072Z,22.07
2019-04-04T03:00:30.117Z,24.47
2019-04-04T03:02:58.233Z,20.73
2019-04-04T03:05:26.337Z,23.13
2019-04-04T03:07:54.382Z,22.73
2019-04-04T03:10:22.457Z,24.07
2019-04-04T03:12:50.579Z,28.53
2019-04-04T03:15:18.648Z,23.37
2019-04-04T03:17:46.709Z,23.63
2019-04-04T03:20:17.329Z,24.73
2019-04-04T03:22:44.625Z,22.53
2019-04-04T03:25:14.794Z,24.67
2019-04-04T03:27:42.451Z,24.03
2019-04-04T03:30:14.405Z,24.60
2019-04-04T03:32:40.320Z,25.43
2019-04-04T03:35:08.464Z,26.63
2019-04-04T03:37:40.566Z,26.70
2019-04-04T03:40:06.464Z,23.73
2019-04-04T03:42:34.489Z,28.63
2019-04-04T03:45:02.831Z,27.07
2019-04-04T03:47:30.871Z,28.27
2019-04-04T03:49:58.924Z,28.93
2019-04-04T03:52:26.978Z,26.53
2019-04-04T03:54:56.295Z,30.17
2019-04-04T03:57:24.659Z,28.93
2019-04-04T03:59:52.739Z,30.50
2019-04-04T04:02:20.801Z,32.53
2019-04-04T04:04:48.847Z,29.20
2019-04-04T04:07:16.906Z,32.03
2019-04-04T04:09:44.978Z,30.07
2019-04-04T04:12:13.078Z,28.03
2019-04-04T04:14:41.126Z,29.23
2019-04-04T04:17:11.535Z,31.37
2019-04-04T04:19:38.944Z,28.23
2019-04-04T04:22:07.003Z,29.50
2019-04-04T04:24:35.058Z,29.70
2019-04-04T04:27:03.129Z,30.57
2019-04-04T04:29:31.186Z,28.90
2019-04-04T04:31:59.243Z,29.67
2019-04-04T04:34:27.305Z,32.17
2019-04-04T04:36:55.360Z,31.13
2019-04-04T04:39:23.431Z,37.93
2019-04-04T04:41:54.129Z,33.47
2019-04-04T04:44:21.257Z,35.43
2019-04-04T04:46:50.415Z,35.63
2019-04-04T04:49:22.947Z,33.73
2019-04-04T04:51:51.702Z,30.00
2019-04-04T04:54:20.475Z,35.77
2019-04-04T04:56:49.664Z,33.17
2019-04-04T04:59:17.724Z,33.73
2019-04-04T05:01:45.767Z,34.00
2019-04-04T05:04:13.825Z,34.00
2019-04-04T05:06:41.900Z,36.27
2019-04-04T05:09:09.946Z,32.33
2019-04-04T05:11:38.011Z,33.27
2019-04-04T05:14:06.066Z,32.77
2019-04-04T05:16:53.448Z,36.30
2019-04-04T05:19:21.578Z,31.87
2019-04-04T05:21:49.693Z,34.97
2019-04-04T05:24:18.131Z,35.10
2019-04-04T05:26:46.787Z,30.77
2019-04-04T05:29:14.830Z,32.37
2019-04-04T05:31:42.922Z,32.07
2019-04-04T05:34:10.946Z,33.03
2019-04-04T05:36:38.998Z,28.00
2019-04-04T05:39:07.601Z,30.77
2019-04-04T05:41:37.360Z,30.57
2019-04-04T05:44:09.042Z,30.63
2019-04-04T05:46:35.477Z,26.90
2019-04-04T05:49:07.814Z,30.27
2019-04-04T05:51:36.437Z,32.10
2019-04-04T05:54:07.035Z,29.03
2019-04-04T05:56:34.295Z,31.23
2019-04-04T05:59:02.389Z,30.53
2019-04-04T06:01:30.553Z,34.07
2019-04-04T06:03:58.598Z,30.63
2019-04-04T06:06:26.659Z,29.20
2019-04-04T06:08:54.770Z,28.13
2019-04-04T06:11:22.839Z,31.07
2019-04-04T06:13:50.898Z,30.33
2019-04-04T06:16:18.942Z,25.73
2019-04-04T06:18:49.144Z,25.03
2019-04-04T06:21:18.491Z,23.90
2019-04-04T06:23:46.707Z,25.35
2019-04-04T06:26:14.855Z,22.60
2019-04-04T06:28:44.398Z,21.77
2019-04-04T06:31:12.700Z,21.40
2019-04-04T06:33:40.761Z,20.90
2019-04-04T06:36:08.828Z,21.87
2019-04-04T06:38:36.918Z,17.90
2019-04-04T06:41:04.974Z,14.40
2019-04-04T06:43:33.021Z,12.80
2019-04-04T06:46:01.091Z,27.90
2019-04-04T06:48:29.341Z,10.87
2019-04-04T06:50:58.922Z,10.83
2019-04-04T06:53:26.967Z,25.53
2019-04-04T06:55:55.031Z,14.70
2019-04-04T06:58:23.087Z,8.47
2019-04-04T07:00:51.132Z,8.33
2019-04-04T07:03:19.191Z,7.37
2019-04-04T07:05:47.236Z,9.77
2019-04-04T07:08:15.900Z,8.17
2019-04-04T07:10:44.131Z,9.57
2019-04-04T07:13:21.495Z,8.50
2019-04-04T07:15:46.956Z,8.97
2019-04-04T07:18:12.342Z,7.50
2019-04-04T07:20:40.953Z,8.13
2019-04-04T07:23:08.990Z,6.90
2019-04-04T07:25:38.098Z,5.70
2019-04-04T07:28:06.826Z,6.47
2019-04-04T07:30:34.954Z,6.97
2019-04-04T07:33:03.005Z,5.67
2019-04-04T07:35:31.060Z,6.97
2019-04-04T07:37:59.182Z,8.03
2019-04-04T07:40:27.243Z,8.53
2019-04-04T07:42:55.277Z,7.30
2019-04-04T07:45:25.846Z,7.07
2019-04-04T07:47:53.197Z,6.17
2019-04-04T07:50:21.273Z,8.80
2019-04-04T07:52:49.408Z,9.00
2019-04-04T07:55:17.563Z,7.17
2019-04-04T07:57:45.602Z,8.80
2019-04-04T08:00:13.728Z,8.13
2019-04-04T08:02:41.771Z,9.07
2019-04-04T08:05:12.913Z,7.60
2019-04-04T08:07:39.673Z,9.47
2019-04-04T08:10:19.975Z,11.67
2019-04-04T08:12:37.791Z,14.37
2019-04-04T08:15:06.700Z,9.60
2019-04-04T08:17:34.759Z,7.47
2019-04-04T08:20:03.277Z,9.70
2019-04-04T08:22:31.319Z,9.93
2019-04-04T08:24:59.370Z,9.23
2019-04-04T08:27:27.418Z,8.67
2019-04-04T08:29:55.481Z,10.43
2019-04-04T08:32:23.526Z,7.83
2019-04-04T08:34:51.568Z,9.73
2019-04-04T08:37:19.666Z,7.73
2019-04-04T08:39:47.782Z,9.90
2019-04-04T08:42:15.819Z,9.10
2019-04-04T08:44:43.947Z,8.27
2019-04-04T08:47:11.987Z,9.70
2019-04-04T08:49:40.035Z,9.33
2019-04-04T08:52:16.546Z,8.90
2019-04-04T08:54:37.853Z,8.83
2019-04-04T08:57:05.941Z,10.40
2019-04-04T08:59:33.986Z,13.33
2019-04-04T09:02:02.052Z,14.87
2019-04-04T09:04:30.100Z,12.57
2019-04-04T09:06:58.160Z,13.57
2019-04-04T09:09:26.535Z,11.27
2019-04-04T09:11:54.659Z,14.50
2019-04-04T09:14:22.710Z,9.13
2019-04-04T09:16:50.763Z,13.33
2019-04-04T09:19:18.827Z,10.57
2019-04-04T09:21:46.904Z,13.13
2019-04-04T09:24:14.985Z,9.60
2019-04-04T09:26:44.032Z,9.53
2019-04-04T09:29:12.083Z,7.87
2019-04-04T09:31:40.141Z,9.50
2019-04-04T09:34:08.183Z,8.17
2019-04-04T09:36:36.246Z,6.63
2019-04-04T09:39:05.964Z,6.07
2019-04-04T09:41:34.003Z,6.20
2019-04-04T09:44:02.050Z,4.60
2019-04-04T09:46:30.102Z,3.13
2019-04-04T09:48:58.147Z,4.00
2019-04-04T09:51:26.763Z,4.23
2019-04-04T09:53:54.811Z,4.20
2019-04-04T09:56:22.846Z,3.40
2019-04-04T09:58:50.902Z,3.37
2019-04-04T10:01:18.954Z,2.40
2019-04-04T10:03:47.007Z,3.37
2019-04-04T10:06:15.150Z,3.13
2019-04-04T10:08:43.194Z,2.97
2019-04-04T10:11:11.231Z,3.40
2019-04-04T10:13:39.292Z,2.87
2019-04-04T10:16:07.402Z,2.97
2019-04-04T10:18:35.447Z,3.13
2019-04-04T10:21:11.644Z,2.33
2019-04-04T10:23:33.293Z,2.50
2019-04-04T10:26:01.330Z,2.10
2019-04-04T10:28:29.382Z,1.77
2019-04-04T10:30:57.434Z,2.47
2019-04-04T10:33:25.483Z,2.27
2019-04-04T10:35:53.541Z,1.70
2019-04-04T10:38:21.965Z,1.80
2019-04-04T10:40:50.022Z,1.67
2019-04-04T10:43:18.062Z,1.40
2019-04-04T10:45:46.098Z,2.47
2019-04-04T10:48:14.157Z,2.70
2019-04-04T10:50:42.812Z,2.67
2019-04-04T10:53:10.960Z,3.27
2019-04-04T10:55:38.997Z,3.77
2019-04-04T10:58:07.350Z,3.00
2019-04-04T11:00:35.526Z,2.70
2019-04-04T11:03:03.576Z,1.63
2019-04-04T11:05:31.614Z,2.10
2019-04-04T11:07:59.677Z,1.40
2019-04-04T11:10:27.718Z,2.33
2019-04-04T11:12:55.794Z,2.00
2019-04-04T11:15:23.838Z,2.00
2019-04-04T11:17:51.886Z,1.67
2019-04-04T11:20:19.947Z,2.40
2019-04-04T11:22:47.996Z,1.97
2019-04-04T11:25:16.054Z,2.33
2019-04-04T11:27:44.161Z,3.37
2019-04-04T11:30:12.265Z,2.60
2019-04-04T11:32:40.313Z,2.50
2019-04-04T11:35:08.434Z,4.07
2019-04-04T11:37:36.479Z,3.73
2019-04-04T11:40:04.600Z,5.70
2019-04-04T11:42:32.683Z,5.53
2019-04-04T11:45:00.723Z,4.00
2019-04-04T11:47:28.774Z,5.80
2019-04-04T11:49:56.822Z,7.10
2019-04-04T11:52:24.859Z,3.30
2019-04-04T11:54:57.056Z,4.23
2019-04-04T11:57:25.114Z,3.60
2019-04-04T11:59:53.222Z,8.43
2019-04-04T12:02:21.559Z,3.30
2019-04-04T12:04:49.678Z,5.07
2019-04-04T12:07:17.722Z,3.07
2019-04-04T12:09:45.761Z,3.63
2019-04-04T12:12:33.175Z,3.20
2019-04-04T12:15:01.214Z,3.43
2019-04-04T12:17:29.277Z,4.23
2019-04-04T12:19:57.328Z,3.83
2019-04-04T12:22:25.379Z,3.43
2019-04-04T12:24:53.418Z,3.20
2019-04-04T12:27:21.497Z,4.43
2019-04-04T12:29:50.015Z,7.27
2019-04-04T12:32:18.059Z,4.67
2019-04-04T12:34:46.115Z,3.20
2019-04-04T12:37:14.162Z,2.73
2019-04-04T12:39:44.385Z,2.83
2019-04-04T12:42:12.018Z,3.87
2019-04-04T12:44:40.070Z,3.73
2019-04-04T12:47:08.123Z,3.73
2019-04-04T12:49:36.175Z,2.13
2019-04-04T12:52:04.383Z,2.93
2019-04-04T12:54:34.081Z,3.73
2019-04-04T12:57:02.223Z,2.50
2019-04-04T12:59:30.278Z,2.23
2019-04-04T13:01:58.339Z,3.07
2019-04-04T13:04:31.601Z,3.10
2019-04-04T13:06:56.166Z,3.10
2019-04-04T13:09:24.216Z,3.30
2019-04-04T13:11:52.262Z,2.53
2019-04-04T13:14:20.336Z,1.97
2019-04-04T13:16:48.359Z,3.37
2019-04-04T13:19:16.425Z,2.47
2019-04-04T13:21:44.485Z,2.43
2019-04-04T13:24:12.597Z,4.67
2019-04-04T13:26:40.646Z,1.83
2019-04-04T13:29:08.702Z,3.80
2019-04-04T13:31:36.746Z,2.03
2019-04-04T13:34:04.835Z,2.17
2019-04-04T13:36:32.887Z,1.90
2019-04-04T13:39:00.930Z,2.17
2019-04-04T13:41:29.014Z,2.40
2019-04-04T13:43:57.057Z,2.30
2019-04-04T13:46:29.174Z,3.00
2019-04-04T13:48:54.898Z,2.67
2019-04-04T13:51:25.516Z,2.20
2019-04-04T13:53:53.734Z,2.17
2019-04-04T13:56:21.802Z,4.47
2019-04-04T13:58:49.835Z,3.00
2019-04-04T14:01:18.157Z,2.30
2019-04-04T14:03:46.266Z,2.07
2019-04-04T14:06:14.310Z,10.53
2019-04-04T14:08:42.362Z,2.03
2019-04-04T14:11:10.424Z,4.27
2019-04-04T14:13:38.583Z,2.60
2019-04-04T14:16:06.629Z,1.50
2019-04-04T14:18:39.787Z,1.77
2019-04-04T14:21:04.530Z,1.60
2019-04-04T14:23:32.578Z,2.63
2019-04-04T14:26:00.754Z,1.90
2019-04-04T14:28:29.319Z,1.87
2019-04-04T14:30:57.514Z,1.80
2019-04-04T14:33:25.578Z,1.63
2019-04-04T14:35:53.619Z,2.60
2019-04-04T14:38:21.676Z,2.17
2019-04-04T14:40:49.795Z,1.20
2019-04-04T14:43:17.831Z,2.23
2019-04-04T14:45:45.918Z,1.40
2019-04-04T14:48:14.041Z,2.17
2019-04-04T14:50:42.084Z,2.43
2019-04-04T14:53:10.118Z,1.37
2019-04-04T14:55:38.171Z,1.63
2019-04-04T14:58:06.226Z,1.70
2019-04-04T15:00:34.265Z,1.80
2019-04-04T15:03:02.366Z,1.50
2019-04-04T15:05:30.398Z,9.73
2019-04-04T15:08:00.895Z,3.03
2019-04-04T15:10:28.222Z,3.40
2019-04-04T15:12:56.263Z,2.03
2019-04-04T15:15:26.305Z,1.60
2019-04-04T15:17:54.081Z,1.80
2019-04-04T15:20:22.174Z,3.17
2019-04-04T15:22:50.198Z,1.90
2019-04-04T15:25:18.263Z,2.53
2019-04-04T15:27:46.301Z,3.07
2019-04-04T15:30:14.518Z,2.13
2019-04-04T15:32:43.292Z,2.30
2019-04-04T15:35:11.433Z,2.57
2019-04-04T15:37:39.479Z,2.67
2019-04-04T15:40:07.694Z,2.47
2019-04-04T15:42:35.746Z,2.50
2019-04-04T15:45:04.709Z,2.53
2019-04-04T15:47:32.747Z,3.00
2019-04-04T15:50:00.795Z,3.20
2019-04-04T15:52:28.846Z,4.13
2019-04-04T15:54:56.898Z,3.37
2019-04-04T15:57:24.958Z,3.40
2019-04-04T15:59:53.066Z,4.40
2019-04-04T16:02:21.106Z,2.97
2019-04-04T16:04:49.215Z,2.33
2019-04-04T16:07:17.258Z,4.37
2019-04-04T16:09:45.299Z,4.53
2019-04-04T16:12:13.370Z,4.00
2019-04-04T16:14:41.500Z,4.30
2019-04-04T16:17:09.548Z,2.37
2019-04-04T16:19:37.594Z,3.10
2019-04-04T16:22:05.647Z,2.67
2019-04-04T16:24:33.734Z,2.70
2019-04-04T16:27:01.803Z,2.63
2019-04-04T16:29:29.834Z,2.43
2019-04-04T16:31:57.908Z,2.63
2019-04-04T16:34:25.944Z,2.77
2019-04-04T16:36:53.986Z,3.07
2019-04-04T16:39:22.044Z,1.97
2019-04-04T16:42:01.705Z,3.63
2019-04-04T16:44:19.882Z,2.43
2019-04-04T16:46:47.919Z,3.10
2019-04-04T16:49:16.006Z,2.83
2019-04-04T16:51:48.427Z,3.23
2019-04-04T16:54:16.506Z,2.47
2019-04-04T16:56:44.554Z,2.57
2019-04-04T16:59:12.615Z,2.53
2019-04-04T17:01:40.651Z,2.17
2019-04-04T17:04:10.816Z,2.67
2019-04-04T17:06:38.919Z,3.27
2019-04-04T17:09:07.442Z,3.27
2019-04-04T17:11:35.484Z,2.20
2019-04-04T17:14:03.595Z,2.70
2019-04-04T17:16:31.654Z,2.07
2019-04-04T17:18:59.698Z,2.53
2019-04-04T17:21:27.765Z,5.77
2019-04-04T17:23:55.827Z,2.27
2019-04-04T17:26:23.938Z,3.20
2019-04-04T17:28:52.386Z,1.57
2019-04-04T17:31:20.498Z,2.63
2019-04-04T17:33:49.455Z,2.43
2019-04-04T17:36:20.596Z,2.00
2019-04-04T17:38:47.295Z,3.43
2019-04-04T17:41:15.347Z,2.07
2019-04-04T17:43:43.882Z,2.50
2019-04-04T17:46:11.914Z,4.53
2019-04-04T17:48:40.256Z,3.83
2019-04-04T17:51:10.234Z,3.33
2019-04-04T17:53:38.632Z,2.60
2019-04-04T17:56:06.715Z,2.63
2019-04-04T17:58:34.761Z,2.40
2019-04-04T18:01:04.374Z,2.87
2019-04-04T18:03:32.435Z,2.80
2019-04-04T18:06:00.490Z,3.20
2019-04-04T18:08:28.535Z,2.83
2019-04-04T18:10:56.570Z,3.80
2019-04-04T18:13:24.630Z,3.37
2019-04-04T18:15:52.703Z,3.33
2019-04-04T18:18:20.755Z,3.80
2019-04-04T18:20:48.826Z,3.30
2019-04-04T18:23:16.891Z,3.57
2019-04-04T18:25:44.914Z,2.93
2019-04-04T18:28:12.988Z,3.47
2019-04-04T18:30:41.029Z,3.13
2019-04-04T18:33:09.359Z,6.23
2019-04-04T18:35:38.333Z,3.47
2019-04-04T18:38:06.910Z,4.13
2019-04-04T18:40:34.958Z,3.30
2019-04-04T18:43:03.003Z,3.83
2019-04-04T18:45:31.053Z,3.33
2019-04-04T18:47:59.089Z,3.40
2019-04-04T18:50:27.170Z,6.03
2019-04-04T18:52:55.210Z,3.57
2019-04-04T18:55:23.281Z,4.53
2019-04-04T18:57:51.405Z,3.23
2019-04-04T19:00:19.632Z,3.93
2019-04-04T19:02:47.728Z,3.53
2019-04-04T19:05:15.811Z,4.23
2019-04-04T19:07:43.850Z,3.23
2019-04-04T19:10:12.115Z,3.87
2019-04-04T19:12:40.150Z,3.47
2019-04-04T19:15:08.440Z,4.30
2019-04-04T19:17:36.529Z,3.67
2019-04-04T19:20:05.999Z,4.40
2019-04-04T19:22:34.027Z,3.23
2019-04-04T19:25:02.086Z,3.60
2019-04-04T19:27:30.138Z,4.17
2019-04-04T19:29:58.407Z,4.10
2019-04-04T19:32:26.452Z,4.87
2019-04-04T19:34:54.506Z,4.53
2019-04-04T19:37:22.582Z,5.63
2019-04-04T19:39:50.684Z,6.20
2019-04-04T19:42:19.047Z,5.77
2019-04-04T19:44:53.318Z,5.40
2019-04-04T19:47:16.884Z,5.37
2019-04-04T19:49:44.932Z,6.33
2019-04-04T19:52:13.011Z,5.27
2019-04-04T19:54:41.094Z,5.23
2019-04-04T19:57:09.177Z,5.17
2019-04-04T19:59:37.248Z,5.33
2019-04-04T20:02:05.297Z,4.93
2019-04-04T20:04:33.364Z,5.57
2019-04-04T20:07:03.625Z,4.33
2019-04-04T20:09:31.192Z,6.10
2019-04-04T20:11:59.236Z,5.67
2019-04-04T20:14:29.044Z,4.37
2019-04-04T20:16:57.206Z,4.83
2019-04-04T20:19:25.319Z,6.70
2019-04-04T20:21:56.235Z,4.57
2019-04-04T20:24:23.166Z,5.30
2019-04-04T20:26:51.221Z,4.70
2019-04-04T20:29:19.549Z,4.67
2019-04-04T20:31:47.588Z,4.63
2019-04-04T20:34:15.630Z,4.30
2019-04-04T20:36:43.692Z,3.90
2019-04-04T20:39:11.741Z,5.07
2019-04-04T20:41:39.782Z,4.80
2019-04-04T20:44:07.843Z,12.97
2019-04-04T20:46:35.890Z,7.60
2019-04-04T20:49:03.936Z,6.30
2019-04-04T20:51:33.367Z,5.23
2019-04-04T20:54:01.469Z,4.67
2019-04-04T20:56:29.510Z,5.33
2019-04-04T20:58:57.567Z,8.40
2019-04-04T21:01:25.678Z,5.77
2019-04-04T21:04:13.246Z,4.47
2019-04-04T21:06:41.346Z,5.13
2019-04-04T21:09:10.480Z,5.57
2019-04-04T21:11:38.894Z,5.40
2019-04-04T21:14:06.995Z,5.73
2019-04-04T21:16:35.131Z,6.30
2019-04-04T21:19:03.290Z,4.93
2019-04-04T21:21:31.430Z,5.50
2019-04-04T21:23:59.490Z,6.23
2019-04-04T21:26:27.862Z,6.40
2019-04-04T21:28:55.918Z,4.93
2019-04-04T21:31:24.095Z,5.60
2019-04-04T21:33:52.203Z,5.37
2019-04-04T21:36:20.521Z,5.13
2019-04-04T21:38:49.171Z,4.47
2019-04-04T21:41:17.246Z,5.93
2019-04-04T21:43:45.355Z,6.30
2019-04-04T21:46:13.422Z,5.90
2019-04-04T21:48:41.464Z,6.30
2019-04-04T21:51:11.928Z,6.70
2019-04-04T21:53:40.090Z,6.27
2019-04-04T21:56:08.145Z,6.43
2019-04-04T21:58:36.178Z,5.83
2019-04-04T22:01:04.400Z,7.03
2019-04-04T22:03:32.527Z,6.87
2019-04-04T22:06:00.921Z,6.90
2019-04-04T22:08:29.042Z,7.60
2019-04-04T22:10:57.234Z,7.83
2019-04-04T22:13:25.291Z,7.43
2019-04-04T22:15:53.370Z,7.17
2019-04-04T22:18:21.454Z,6.67
2019-04-04T22:20:49.558Z,9.10
2019-04-04T22:23:17.990Z,8.47
2019-04-04T22:25:46.047Z,8.80
2019-04-04T22:28:14.112Z,8.43
2019-04-04T22:30:42.824Z,10.77
2019-04-04T22:33:10.890Z,11.77
2019-04-04T22:35:38.933Z,8.33
2019-04-04T22:38:07.083Z,14.10
2019-04-04T22:40:35.133Z,11.60
2019-04-04T22:43:03.190Z,8.60
2019-04-04T22:45:31.234Z,8.67
2019-04-04T22:47:59.607Z,9.93
2019-04-04T22:50:27.694Z,9.13
2019-04-04T22:52:55.757Z,11.00
2019-04-04T22:55:26.432Z,8.50
2019-04-04T22:57:53.566Z,9.83
2019-04-04T23:00:21.664Z,10.90
2019-04-04T23:02:49.778Z,10.07
2019-04-04T23:05:17.929Z,15.43
2019-04-04T23:07:45.990Z,15.10
2019-04-04T23:10:14.119Z,13.43
2019-04-04T23:12:42.186Z,13.80
2019-04-04T23:15:10.311Z,14.33
2019-04-04T23:17:38.371Z,13.63
2019-04-04T23:20:08.211Z,17.17
2019-04-04T23:22:36.282Z,11.17
2019-04-04T23:25:07.086Z,10.30
2019-04-04T23:27:35.128Z,9.50
2019-04-04T23:30:03.795Z,8.63
2019-04-04T23:32:31.835Z,7.03
2019-04-04T23:34:59.912Z,9.70
2019-04-04T23:37:27.964Z,9.13
2019-04-04T23:39:56.038Z,8.70
2019-04-04T23:42:24.110Z,8.10
2019-04-04T23:45:00.927Z,9.23
2019-04-04T23:47:21.954Z,8.83
2019-04-04T23:49:49.998Z,11.47
2019-04-04T23:52:18.066Z,9.00
2019-04-04T23:54:46.115Z,12.20
2019-04-04T23:57:14.171Z,10.37
2019-04-04T23:59:42.259Z,9.57
